METAR Data
IDs: Format: Raw Decoded Include TAF

Data at: 1436 UTC 21 May 2019

KDNS 211415Z AUTO 10022G31KT 9SM OVC006 08/08 A2987 RMK AO2
KDNS 211355Z AUTO 10023G33KT 10SM OVC007 08/08 A2987 RMK AO2
KDNS 211335Z AUTO 10024G34KT 10SM OVC007 08/08 A2985 RMK AO2
KDNS 211315Z AUTO 10025G32KT 6SM BR OVC009 08/08 A2985 RMK AO2
KDNS 211255Z AUTO 09020G26KT 10SM OVC010 08/08 A2985 RMK AO2
KDNS 211235Z AUTO 09018G29KT 10SM BKN013 OVC022 08/08 A2987 RMK AO2
KDNS 211215Z AUTO 09017G24KT 10SM BKN012 BKN026 OVC038 08/08 A2989 RMK AO2
KDNS 211155Z AUTO 10017G22KT 10SM OVC009 08/08 A2990 RMK AO2
KDNS 211135Z AUTO 09016G26KT 10SM OVC010 08/08 A2989 RMK AO2
KDNS 211115Z AUTO 09018G29KT 8SM BKN010 OVC014 08/08 A2987 RMK AO2
KDNS 211055Z AUTO 09019G27KT 2SM -DZ BKN009 BKN013 OVC042 08/08 A2988 RMK AO2 P0006
KDNS 211035Z AUTO 08018G26KT 2 1/2SM -RA BKN010 BKN014 OVC023 08/08 A2989 RMK AO2
KDNS 211015Z AUTO 08017KT 3SM BR BKN011 OVC017 08/08 A2990 RMK AO2
KDNS 210955Z AUTO 10015G21KT 3SM -RA SCT009 BKN013 OVC055 08/08 A2992 RMK AO2 P0017
KDNS 210935Z AUTO 10015G22KT 2 1/2SM -RA BKN009 BKN015 BKN022 08/08 A2993 RMK AO2
KDNS 210915Z AUTO 09013G19KT 2SM -RA SCT009 BKN013 BKN017 08/08 A2993 RMK AO2
KDNS 210855Z AUTO 09015G21KT 2 1/2SM BR BKN016 OVC021 08/08 A2994 RMK AO2 P0003
KDNS 210835Z AUTO 09012G20KT 2SM BR SCT019 BKN027 OVC038 09/08 A2995 RMK AO2
KDNS 210815Z AUTO 09014G22KT 09/07 A2994 RMK AO2
KDNS 210755Z AUTO 09016G21KT 10SM FEW042 BKN050 OVC070 10/07 A2991 RMK AO2
KDNS 210735Z AUTO 09015G27KT 10SM FEW049 OVC070 10/07 A2993 RMK AO2
KDNS 210655Z AUTO 08017G23KT 10SM OVC070 10/07 A2993 RMK AO2
KDNS 210635Z AUTO 09016G24KT 10SM SCT055 OVC070 10/07 A2994 RMK AO2
KDNS 210615Z AUTO 09014KT 10SM BKN055 OVC070 10/07 A2996 RMK AO2
KDNS 210555Z AUTO 10011KT 10SM BKN060 OVC070 10/07 A2998 RMK AO2
KDNS 210535Z AUTO 09011KT 10SM OVC060 10/07 A2998 RMK AO2
KDNS 210515Z AUTO 09012KT 10SM BKN060 OVC075 10/07 A2999 RMK AO2
KDNS 210455Z AUTO 09011G18KT 10SM SCT060 BKN075 OVC085 10/07 A2999 RMK AO2
KDNS 210435Z AUTO 09012G19KT 10SM SCT075 OVC085 11/07 A2998 RMK AO2
KDNS 210415Z AUTO 09013KT 10SM OVC075 11/07 A2998 RMK AO2
KDNS 210355Z AUTO 09012G19KT 10SM OVC070 11/07 A2999 RMK AO2
KDNS 210335Z AUTO 09010KT 10SM OVC075 11/06 A2998 RMK AO2
KDNS 210315Z AUTO 10011KT 10SM OVC075 11/06 A2999 RMK AO2
KDNS 210255Z AUTO 07012KT 10SM OVC085 11/06 A2999 RMK AO2
KDNS 210235Z AUTO 08010KT 10SM OVC090 11/06 A3000 RMK AO2
KDNS 210215Z AUTO 09009KT 10SM OVC085 11/06 A3002 RMK AO2
KDNS 210155Z AUTO 09009KT 10SM SCT085 BKN110 11/06 A3001 RMK AO2
KDNS 210135Z AUTO 08007G13KT 10SM CLR 11/06 A3002 RMK AO2
KDNS 210115Z AUTO 08009KT 10SM BKN110 11/05 A3002 RMK AO2
KDNS 210015Z AUTO 09012KT 10SM CLR 12/05 A3003 RMK AO2
KDNS 202355Z AUTO 09009G16KT 10SM CLR 12/05 A3004 RMK AO2
KDNS 202335Z AUTO 09012KT 10SM CLR 12/05 A3005 RMK AO2
KDNS 202315Z AUTO 10013KT 070V130 10SM CLR 12/05 A3007 RMK AO2
KDNS 202255Z AUTO 11011KT 10SM CLR 12/05 A3008 RMK AO2
KDNS 202235Z AUTO 11011KT 10SM FEW039 SCT090 12/05 A3009 RMK AO2
KDNS 202215Z AUTO 10009G14KT 10SM SCT039 OVC090 12/05 A3011 RMK AO2
KDNS 202155Z AUTO 11008KT 10SM FEW038 BKN085 12/05 A3011 RMK AO2
KDNS 202135Z AUTO 09010KT 10SM FEW090 12/05 A3011 RMK AO2
KDNS 202115Z AUTO 10010KT 10SM CLR 12/05 A3011 RMK AO2
KDNS 202055Z AUTO 10011G17KT 10SM FEW035 12/05 A3012 RMK AO2
KDNS 202035Z AUTO 08011KT 10SM SCT035 12/05 A3012 RMK AO2
KDNS 202015Z AUTO 09011G16KT 10SM SCT034 12/05 A3013 RMK AO2
KDNS 201955Z AUTO 08011G20KT 10SM SCT034 12/05 A3013 RMK AO2
KDNS 201935Z AUTO 11011KT 10SM SCT034 12/05 A3015 RMK AO2
KDNS 201915Z AUTO 09011G16KT 10SM BKN032 11/05 A3016 RMK AO2
KDNS 201855Z AUTO 12010KT 10SM BKN032 11/05 A3017 RMK AO2
KDNS 201835Z AUTO 10014KT 10SM BKN030 11/05 A3017 RMK AO2
KDNS 201815Z AUTO 11010G19KT 10SM BKN030 11/05 A3017 RMK AO2
KDNS 201755Z AUTO 09011G19KT 10SM BKN029 11/05 A3016 RMK AO2
KDNS 201735Z AUTO 08013G19KT 10SM BKN027 10/05 A3016 RMK AO2
KDNS 201715Z AUTO 09012G18KT 10SM BKN025 BKN029 10/05 A3015 RMK AO2
KDNS 201655Z AUTO 10012G18KT 10SM BKN026 09/05 A3017 RMK AO2
KDNS 201635Z AUTO 08015KT 10SM BKN026 09/05 A3017 RMK AO2
KDNS 201615Z AUTO 08015G20KT 10SM BKN024 BKN028 09/05 A3018 RMK AO2
KDNS 201555Z AUTO 09011KT 10SM BKN025 09/05 A3018 RMK AO2
KDNS 201535Z AUTO 06012G18KT 10SM SCT022 08/04 A3018 RMK AO2
KDNS 201515Z AUTO 08013KT 10SM CLR 08/04 A3016 RMK AO2
KDNS 201455Z AUTO 06012KT 10SM FEW019 07/04 A3017 RMK AO2
KDNS 201435Z AUTO 06008G13KT 10SM FEW020 07/04 A3018 RMK AO2
KDNS 201415Z AUTO 05006G12KT 10SM FEW019 07/04 A3019 RMK AO2
KDNS 201355Z AUTO 03010KT 10SM CLR 06/03 A3017 RMK AO2
KDNS 201335Z AUTO 03010G16KT 10SM SCT017 06/03 A3015 RMK AO2
KDNS 201315Z AUTO 05009G15KT 10SM BKN017 06/03 A3016 RMK AO2
KDNS 201255Z AUTO 03011KT 10SM BKN016 05/03 A3016 RMK AO2
KDNS 201235Z AUTO 03010KT 10SM SCT015 05/03 A3015 RMK AO2
KDNS 201215Z AUTO 02007KT 10SM CLR 05/03 A3016 RMK AO2
KDNS 201155Z AUTO 02006KT 10SM FEW014 04/03 A3016 RMK AO2
KDNS 201135Z AUTO 01006KT 10SM BKN014 04/03 A3015 RMK AO2
KDNS 201115Z AUTO 03006KT 10SM OVC015 04/03 A3015 RMK AO2
KDNS 201055Z AUTO 04004KT 10SM OVC015 05/03 A3014 RMK AO2
KDNS 201035Z AUTO 02007KT 10SM OVC015 05/03 A3013 RMK AO2
KDNS 201015Z AUTO 04007KT 10SM OVC015 05/03 A3013 RMK AO2
KDNS 200955Z AUTO 02005KT 10SM OVC016 05/03 A3013 RMK AO2
KDNS 200935Z AUTO 04007KT 10SM OVC017 05/03 A3012 RMK AO2
KDNS 200915Z AUTO 36009KT 10SM OVC017 05/03 A3012 RMK AO2
KDNS 200855Z AUTO 02007KT 10SM OVC018 05/03 A3012 RMK AO2
KDNS 200835Z AUTO 01008KT 10SM OVC017 05/03 A3011 RMK AO2
KDNS 200815Z AUTO 03007KT 10SM OVC018 05/03 A3011 RMK AO2
KDNS 200755Z AUTO 03007KT OVC018 05/03 A3010 RMK AO2
KDNS 200735Z AUTO 02008KT 10SM OVC016 05/04 A3010 RMK AO2
KDNS 200715Z AUTO 02010KT 10SM OVC015 05/04 A3010 RMK AO2
KDNS 200655Z AUTO 02012KT 10SM BKN017 OVC022 06/04 A3009 RMK AO2
KDNS 200635Z AUTO 02009KT 10SM SCT014 OVC022 06/04 A3010 RMK AO2
KDNS 200615Z AUTO 03008G15KT 10SM BKN013 OVC021 06/04 A3010 RMK AO2
KDNS 200555Z AUTO 01009G14KT 10SM BKN014 OVC021 06/05 A3009 RMK AO2
KDNS 200535Z AUTO 01011G17KT 10SM BKN012 OVC023 06/05 A3009 RMK AO2
KDNS 200515Z AUTO 36010KT 10SM FEW008 BKN016 OVC022 06/06 A3008 RMK AO2
KDNS 200455Z AUTO 36009G16KT 4SM BR FEW008 OVC014 06/06 A3008 RMK AO2
KDNS 200435Z AUTO 01011KT 10SM OVC018 07/06 A3006 RMK AO2
KDNS 200415Z AUTO 35009KT 10SM OVC019 07/06 A3005 RMK AO2
KDNS 200355Z AUTO 35009G16KT 10SM FEW012 OVC018 07/06 A3005 RMK AO2
KDNS 200335Z AUTO 36009KT 10SM FEW012 OVC018 08/07 A3003 RMK AO2
KDNS 200315Z AUTO 36008KT 10SM SCT016 BKN026 OVC050 08/07 A3002 RMK AO2
KDNS 200255Z AUTO 35009G16KT 10SM FEW013 SCT026 OVC033 08/07 A3001 RMK AO2